Time;durP1;ratioP1;P1;durP2;ratioP2;P2;SDS_P1;SDS_P2;PMS_P1;PMS_P2;Temp;Humidity;BMP_temperature;BMP_pressure;BME280_temperature;BME280_humidity;BME280_pressure;Samples;Min_cycle;Max_cycle;Signal;HPM_P1;HPM_P2
2022/03/23 00:02:09;;;;;;;23.08;11.88;;;;;;;;;;5051204;28;20056;-87
2022/03/23 00:04:35;;;;;;;22.67;11.18;;;7.60;90.10;;;;;;5051735;28;20712;-85
2022/03/23 00:07:01;;;;;;;22.13;12.02;;;11.00;91.30;;;;;;5049908;28;20485;-87
2022/03/23 00:09:27;;;;;;;24.90;12.15;;;7.60;91.20;;;;;;5044876;28;20138;-87
2022/03/23 00:11:53;;;;;;;22.30;12.18;;;8.50;91.60;;;;;;5048539;28;20150;-88
2022/03/23 00:14:18;;;;;;;28.05;13.52;;;10.10;92.30;;;;;;5046635;28;20043;-86
2022/03/23 00:16:44;;;;;;;24.52;11.75;;;7.60;91.70;;;;;;5054771;28;20074;-87
2022/03/23 00:19:10;;;;;;;22.88;12.65;;;7.90;92.10;;;;;;5047638;28;20164;-89
2022/03/23 00:21:37;;;;;;;20.52;11.23;;;;;;;;;;5047213;28;20047;-87
2022/03/23 00:24:04;;;;;;;20.88;10.93;;;7.40;92.10;;;;;;5053732;28;20024;-89
2022/03/23 00:26:30;;;;;;;22.02;11.85;;;;;;;;;;5066046;28;20093;-87
2022/03/23 00:28:56;;;;;;;20.20;11.10;;;7.40;92.70;;;;;;5081174;28;20020;-87
2022/03/23 00:31:22;;;;;;;18.50;10.80;;;7.40;93.20;;;;;;5069680;28;20299;-85
2022/03/23 00:33:49;;;;;;;24.63;12.10;;;;;;;;;;5066713;28;20100;-89
2022/03/23 00:36:15;;;;;;;20.05;11.60;;;;;;;;;;5067025;28;20037;-88
2022/03/23 00:38:42;;;;;;;21.95;12.13;;;;;;;;;;5049570;28;20036;-89
2022/03/23 00:41:08;;;;;;;20.17;11.32;;;;;;;;;;5063752;28;20029;-83
2022/03/23 00:43:34;;;;;;;20.10;12.25;;;;;;;;;;5064851;28;20036;-87
2022/03/23 00:46:01;;;;;;;23.40;11.85;;;;;;;;;;5057644;28;20088;-87
2022/03/23 00:48:27;;;;;;;21.30;12.68;;;6.90;97.00;;;;;;5051365;28;20033;-86
2022/03/23 00:50:53;;;;;;;22.88;12.07;;;;;;;;;;5055749;28;20097;-89
2022/03/23 00:53:20;;;;;;;22.98;11.52;;;;;;;;;;5062904;28;20040;-85
2022/03/23 00:55:46;;;;;;;21.75;12.63;;;;;;;;;;5075090;28;20024;-87
2022/03/23 00:58:12;;;;;;;24.80;14.02;;;7.70;97.90;;;;;;5069534;28;20096;-86
2022/03/23 01:00:38;;;;;;;21.65;12.27;;;;;;;;;;5068933;28;20051;-86
2022/03/23 01:03:04;;;;;;;24.60;12.82;;;;;;;;;;5070114;28;20058;-87
2022/03/23 01:05:30;;;;;;;22.45;12.35;;;;;;;;;;5063456;28;20055;-89
2022/03/23 01:07:56;;;;;;;23.48;12.27;;;;;;;;;;5069137;28;20093;-87
2022/03/23 01:10:24;;;;;;;19.80;10.82;;;6.80;98.50;;;;;;5063782;28;20508;-88
2022/03/23 01:12:50;;;;;;;19.67;11.88;;;;;;;;;;5059729;28;20029;-87
2022/03/23 01:15:19;;;;;;;19.40;10.77;;;6.80;98.80;;;;;;5064770;28;20486;-89
2022/03/23 01:17:45;;;;;;;21.88;11.32;;;;;;;;;;5065727;28;20043;-88
2022/03/23 01:20:14;;;;;;;21.77;11.38;;;6.70;99.00;;;;;;5075337;28;20088;-89
2022/03/23 01:22:44;;;;;;;22.02;10.88;;;6.70;99.20;;;;;;5080623;28;20032;-88
2022/03/23 01:25:10;;;;;;;20.73;11.27;;;;;;;;;;5072301;28;20074;-90
2022/03/23 01:27:37;;;;;;;25.08;12.02;;;6.70;99.90;;;;;;5070937;28;20504;-86
2022/03/23 01:30:08;;;;;;;18.52;11.45;;;6.70;99.40;;;;;;5057352;28;20685;-88
2022/03/23 01:32:34;;;;;;;19.15;10.38;;;;;;;;;;5063476;28;20029;-87
2022/03/23 01:35:01;;;;;;;18.80;10.77;;;;;;;;;;5052305;28;20036;-90
2022/03/23 01:37:27;;;;;;;20.50;10.57;;;;;;;;;;5048807;28;20021;-87
2022/03/23 01:39:53;;;;;;;20.02;11.20;;;;;;;;;;5052262;28;20044;-88
2022/03/23 01:42:19;;;;;;;22.23;12.13;;;;;;;;;;5055784;28;20058;-85
2022/03/23 01:44:45;;;;;;;17.70;11.38;;;;;;;;;;5051946;28;20029;-88
2022/03/23 01:47:16;;;;;;;20.02;10.80;;;6.50;99.90;;;;;;5051654;28;20035;-84
2022/03/23 01:49:52;;;;;;;18.88;11.68;;;6.40;99.90;;;;;;5049523;28;20104;-87
2022/03/23 01:52:20;;;;;;;18.75;11.38;;;6.40;99.90;;;;;;5051738;28;20067;-90
2022/03/23 01:54:47;;;;;;;18.80;11.27;;;6.40;99.90;;;;;;5048126;28;20075;-87
2022/03/23 01:57:14;;;;;;;22.15;11.82;;;6.40;99.90;;;;;;5047430;28;20118;-84
2022/03/23 01:59:41;;;;;;;21.58;11.15;;;;;;;;;;5053509;28;20066;-88
2022/03/23 02:02:08;;;;;;;19.60;11.05;;;6.30;99.90;;;;;;5052928;28;20029;-86
2022/03/23 02:04:34;;;;;;;20.52;10.85;;;;;;;;;;5051530;28;20055;-88
2022/03/23 02:07:00;;;;;;;25.10;11.38;;;;;;;;;;5054312;28;20032;-90
2022/03/23 02:09:30;;;;;;;21.73;11.85;;;6.20;99.90;;;;;;5051296;28;20174;-89
2022/03/23 02:11:57;;;;;;;18.55;11.32;;;6.20;99.90;;;;;;5054948;28;21612;-89
2022/03/23 02:14:23;;;;;;;18.27;11.00;;;;;;;;;;5033664;28;20040;-87
2022/03/23 02:16:51;;;;;;;24.48;11.93;;;6.10;99.90;;;;;;5059328;28;20037;-89
2022/03/23 02:19:22;;;;;;;21.67;11.50;;;6.10;99.90;;;;;;5048246;28;20198;-88
2022/03/23 02:21:50;;;;;;;21.90;11.15;;;6.10;99.90;;;;;;5056716;28;20037;-83
2022/03/23 02:24:16;;;;;;;19.92;11.07;;;;;;;;;;5056699;28;20060;-86
2022/03/23 02:26:42;;;;;;;19.95;10.90;;;6.00;99.90;;;;;;5056974;28;20066;-84
2022/03/23 02:29:09;;;;;;;21.00;10.98;;;;;;;;;;5057842;28;20044;-87
2022/03/23 02:31:35;;;;;;;21.50;12.02;;;6.00;99.90;;;;;;5059002;28;20033;-83
2022/03/23 02:34:03;;;;;;;22.17;11.90;;;6.00;99.90;;;;;;5062798;28;20044;-87
2022/03/23 02:36:30;;;;;;;24.17;10.88;;;;;;;;;;5056732;28;20041;-86
2022/03/23 02:38:56;;;;;;;21.67;11.77;;;6.00;99.90;;;;;;5053599;28;20037;-89
2022/03/23 02:41:23;;;;;;;22.05;11.95;;;;;;;;;;5058100;28;20037;-86
2022/03/23 02:43:49;;;;;;;25.92;12.52;;;;;;;;;;5066054;28;20048;-86
2022/03/23 02:46:19;;;;;;;18.63;11.40;;;5.90;99.90;;;;;;5068658;28;20058;-83
2022/03/23 02:48:47;;;;;;;20.33;12.05;;;5.90;99.90;;;;;;5059794;28;20032;-88
2022/03/23 02:51:13;;;;;;;17.27;11.18;;;;;;;;;;5059526;28;20032;-84
2022/03/23 03:02:21;;;;;;;22.77;12.48;;;5.70;99.90;;;;;;5055909;28;20044;-87
2022/03/23 03:04:50;;;;;;;21.20;11.95;;;5.60;99.90;;;;;;5058299;28;20033;-85
2022/03/23 03:07:16;;;;;;;23.70;12.52;;;;;;;;;;5055687;28;20322;-84
2022/03/23 03:09:42;;;;;;;19.98;11.65;;;;;;;;;;5059532;28;20039;-87
2022/03/23 03:12:10;;;;;;;21.98;12.32;;;5.70;99.90;;;;;;5054023;28;20029;-84
2022/03/23 03:14:36;;;;;;;19.95;11.18;;;5.70;99.90;;;;;;5070660;28;20064;-86
2022/03/23 03:17:02;;;;;;;21.17;11.90;;;;;;;;;;5057943;28;20107;-86
2022/03/23 03:21:59;;;;;;;20.00;11.38;;;5.60;99.90;;;;;;5027007;28;20041;-82
2022/03/23 03:24:24;;;;;;;22.27;11.68;;;5.60;99.90;;;;;;5010920;28;20068;-81
2022/03/23 03:26:51;;;;;;;19.75;11.05;;;5.60;99.90;;;;;;5019693;28;20050;-82
2022/03/23 03:29:18;;;;;;;21.00;11.90;;;5.60;99.90;;;;;;4993582;28;20030;-79
2022/03/23 03:31:44;;;;;;;20.35;11.70;;;5.60;99.90;;;;;;5016262;28;20038;-81
2022/03/23 03:34:10;;;;;;;22.55;11.68;;;5.60;99.90;;;;;;4982344;28;20098;-80
2022/03/23 03:36:41;;;;;;;21.05;11.57;;;5.60;99.90;;;;;;4983544;28;20045;-80
2022/03/23 03:39:10;;;;;;;24.27;12.10;;;5.50;99.90;;;;;;4993790;28;20038;-83
2022/03/23 03:41:36;;;;;;;19.77;11.82;;;5.50;99.90;;;;;;4985019;28;20029;-82
2022/03/23 03:44:03;;;;;;;23.45;12.15;;;5.50;99.90;;;;;;4983143;28;20125;-80
2022/03/23 03:46:29;;;;;;;21.92;12.00;;;5.40;99.90;;;;;;4967120;28;20026;-82
2022/03/23 03:48:55;;;;;;;21.73;12.10;;;5.40;99.90;;;;;;4986859;28;20420;-79
2022/03/23 03:51:21;;;;;;;21.90;12.43;;;5.30;99.90;;;;;;4983261;28;20092;-82
2022/03/23 03:53:48;;;;;;;26.25;13.80;;;5.30;99.90;;;;;;5000744;28;20132;-83
2022/03/23 03:56:14;;;;;;;19.83;12.18;;;5.30;99.90;;;;;;4997536;28;20120;-81
2022/03/23 03:58:40;;;;;;;27.98;12.50;;;7.10;99.90;;;;;;4999001;28;20025;-80
2022/03/23 04:01:06;;;;;;;22.23;13.05;;;5.30;99.90;;;;;;4982775;28;20033;-84
2022/03/23 04:03:34;;;;;;;22.85;12.30;;;5.20;99.90;;;;;;5004474;28;20469;-80
2022/03/23 04:06:00;;;;;;;24.10;12.35;;;5.20;99.90;;;;;;4989431;28;20030;-82
2022/03/23 04:08:27;;;;;;;23.30;11.43;;;5.20;99.90;;;;;;4991761;28;20031;-82
2022/03/23 04:10:54;;;;;;;20.00;11.43;;;5.20;99.90;;;;;;4998007;28;20029;-82
2022/03/23 04:13:21;;;;;;;22.13;12.07;;;5.20;99.90;;;;;;4969159;28;20033;-81
2022/03/23 04:15:48;;;;;;;21.77;12.27;;;5.20;99.90;;;;;;4979176;28;20033;-78
2022/03/23 04:18:13;;;;;;;25.77;12.25;;;5.10;99.90;;;;;;4976688;28;20041;-80
2022/03/23 04:20:39;;;;;;;25.23;14.20;;;5.20;99.90;;;;;;5000215;28;20041;-83
2022/03/23 04:23:06;;;;;;;22.38;12.40;;;5.10;99.90;;;;;;4979717;28;20140;-81
2022/03/23 04:25:32;;;;;;;23.65;13.25;;;5.10;99.90;;;;;;4983481;28;20117;-82
2022/03/23 04:27:59;;;;;;;22.65;12.20;;;5.00;99.90;;;;;;4983199;28;20561;-81
2022/03/23 04:30:30;;;;;;;21.38;12.10;;;5.20;99.90;;;;;;4994332;28;20040;-82
2022/03/23 04:32:57;;;;;;;22.15;12.43;;;5.00;99.90;;;;;;5000919;28;20057;-81
2022/03/23 04:35:24;;;;;;;27.35;13.52;;;5.00;99.90;;;;;;4984275;28;20423;-83
2022/03/23 04:37:51;;;;;;;22.55;12.43;;;5.00;99.90;;;;;;4996491;28;20030;-82
2022/03/23 04:40:22;;;;;;;24.65;13.02;;;4.90;99.90;;;;;;4989815;28;20032;-79
2022/03/23 04:42:49;;;;;;;21.75;12.43;;;4.90;99.90;;;;;;5019061;28;20158;-85
2022/03/23 04:45:15;;;;;;;26.65;12.02;;;4.90;99.90;;;;;;4999265;28;20201;-83
2022/03/23 04:47:44;;;;;;;24.50;13.02;;;4.90;99.90;;;;;;4985613;28;20057;-83
2022/03/23 04:50:12;;;;;;;25.70;14.30;;;4.80;99.90;;;;;;4981877;28;20030;-83
2022/03/23 04:52:40;;;;;;;21.60;12.73;;;4.80;99.90;;;;;;5007451;23;20311;-88
2022/03/23 04:55:09;;;;;;;27.17;13.25;;;4.30;99.90;;;;;;5029516;28;20298;-88
2022/03/23 04:57:36;;;;;;;24.02;12.48;;;;;;;;;;5012915;28;20033;-85
2022/03/23 05:00:04;;;;;;;24.67;13.05;;;4.80;99.90;;;;;;4984877;28;20054;-87
2022/03/23 05:02:29;;;;;;;26.48;13.60;;;4.80;99.90;;;;;;4989708;28;20026;-82
2022/03/23 05:04:55;;;;;;;25.63;13.50;;;7.90;99.90;;;;;;4997150;28;20021;-84
2022/03/23 05:07:21;;;;;;;25.40;13.45;;;;;;;;;;5000482;28;20914;-86
2022/03/23 05:09:47;;;;;;;25.20;13.18;;;;;;;;;;5007371;28;20034;-84
2022/03/23 05:12:13;;;;;;;34.05;14.25;;;;;;;;;;4997699;28;20128;-83
2022/03/23 05:14:40;;;;;;;23.80;13.05;;;;;;;;;;5020868;28;20061;-84
2022/03/23 05:17:06;;;;;;;20.27;11.85;;;;;;;;;;4999398;28;20125;-85
2022/03/23 05:19:35;;;;;;;28.77;13.98;;;;;;;;;;5017021;28;20068;-82
2022/03/23 05:22:04;;;;;;;25.35;12.10;;;4.60;99.90;;;;;;5023269;28;20034;-82
2022/03/23 05:24:30;;;;;;;22.95;13.00;;;8.20;99.90;;;;;;5002777;28;20034;-86
2022/03/23 05:26:56;;;;;;;27.05;14.07;;;4.60;99.90;;;;;;5000286;28;20029;-82
2022/03/23 05:29:35;;;;;;;25.65;14.18;;;4.60;99.90;;;;;;5005438;28;20034;-82
2022/03/23 05:32:01;;;;;;;24.17;14.00;;;;;;;;;;5003328;28;20045;-84
2022/03/23 05:34:27;;;;;;;27.42;13.65;;;4.60;99.90;;;;;;5002941;28;20026;-81
2022/03/23 05:36:53;;;;;;;26.42;14.05;;;;;;;;;;5000021;28;20034;-83
2022/03/23 05:39:25;;;;;;;24.55;13.57;;;;;;;;;;5005627;28;20038;-84
2022/03/23 05:41:51;;;;;;;25.13;13.27;;;;;;;;;;4993791;28;20010;-84
2022/03/23 05:44:19;;;;;;;25.20;12.93;;;;;;;;;;4985602;28;20027;-83
2022/03/23 05:46:45;;;;;;;23.98;13.05;;;;;;;;;;4987100;28;20476;-86
2022/03/23 05:49:11;;;;;;;25.50;13.05;;;;;;;;;;4987403;28;20048;-85
2022/03/23 05:51:39;;;;;;;25.20;13.25;;;;;;;;;;4985627;28;20442;-88
2022/03/23 05:54:05;;;;;;;23.90;13.80;;;;;;;;;;5008343;28;20065;-83
2022/03/23 05:56:31;;;;;;;24.98;14.00;;;;;;;;;;4987557;28;20034;-84
2022/03/23 05:58:57;;;;;;;25.63;13.77;;;;;;;;;;4990873;28;20030;-85
2022/03/23 06:01:26;;;;;;;28.67;15.15;;;4.50;99.90;;;;;;5007346;28;20039;-85
2022/03/23 06:03:52;;;;;;;32.20;14.18;;;;;;;;;;5007977;28;20037;-86
2022/03/23 06:06:18;;;;;;;24.45;14.45;;;4.60;99.90;;;;;;4988407;28;20038;-84
2022/03/23 06:08:44;;;;;;;26.15;14.07;;;5.20;99.90;;;;;;4994412;28;20097;-87
2022/03/23 06:11:10;;;;;;;24.38;13.15;;;;;;;;;;4986134;28;21987;-83
2022/03/23 06:13:44;;;;;;;25.85;12.52;;;;;;;;;;4995577;28;20038;-87
2022/03/23 06:16:11;;;;;;;24.27;13.20;;;;;;;;;;4991597;28;20026;-87
2022/03/23 06:18:40;;;;;;;25.23;13.07;;;2.60;99.90;;;;;;4984707;28;20053;-83
2022/03/23 06:21:06;;;;;;;24.30;12.90;;;;;;;;;;4998039;28;20329;-86
2022/03/23 06:23:35;;;;;;;25.00;13.05;;;;;;;;;;4988294;28;20069;-85
2022/03/23 06:26:01;;;;;;;24.98;13.82;;;4.60;99.90;;;;;;5006845;28;20030;-83
2022/03/23 06:28:35;;;;;;;23.98;12.95;;;4.70;99.90;;;;;;4985675;28;20056;-83
2022/03/23 06:31:01;;;;;;;26.80;12.90;;;5.50;99.90;;;;;;4978467;28;20038;-84
2022/03/23 06:33:28;;;;;;;24.05;13.60;;;;;;;;;;4996446;28;20042;-85
2022/03/23 06:35:54;;;;;;;24.65;13.57;;;;;;;;;;4994026;28;20098;-83
2022/03/23 06:38:23;;;;;;;23.42;12.15;;;4.90;99.90;;;;;;4997339;28;20113;-85
2022/03/23 06:40:51;;;;;;;33.83;13.73;;;5.00;99.90;;;;;;4977517;28;20237;-86
2022/03/23 06:43:20;;;;;;;27.23;14.05;;;5.10;99.90;;;;;;4978943;28;20029;-84
2022/03/23 06:45:46;;;;;;;23.58;12.23;;;;;;;;;;4984390;28;20041;-85
2022/03/23 06:48:12;;;;;;;33.70;14.63;;;;;;;;;;4992976;28;20519;-86
2022/03/23 06:50:38;;;;;;;20.20;12.52;;;;;;;;;;4988231;28;20060;-82
2022/03/23 06:53:04;;;;;;;23.98;14.23;;;;;;;;;;4991932;28;20069;-85
2022/03/23 06:55:33;;;;;;;28.00;12.95;;;;;;;;;;4991110;28;20037;-86
2022/03/23 06:58:01;;;;;;;26.27;13.07;;;5.30;99.90;;;;;;4993618;28;20069;-87
2022/03/23 07:00:27;;;;;;;27.67;14.00;;;;;;;;;;4978072;28;20049;-84
2022/03/23 07:02:56;;;;;;;25.35;13.27;;;5.50;99.90;;;;;;5007158;28;20061;-84
2022/03/23 07:05:22;;;;;;;29.20;12.98;;;;;;;;;;4990649;28;20094;-85
2022/03/23 07:10:34;;;;;;;30.95;14.32;;;6.00;99.90;;;;;;4996809;28;20065;-87
2022/03/23 07:13:00;;;;;;;27.50;13.73;;;;;;;;;;4968486;28;20428;-88
2022/03/23 07:15:27;;;;;;;22.15;13.85;;;;;;;;;;4975433;28;20034;-85
2022/03/23 07:17:53;;;;;;;30.88;14.35;;;;;;;;;;4989608;28;20128;-85
2022/03/23 07:20:19;;;;;;;28.42;14.73;;;;;;;;;;4985816;28;20046;-87
2022/03/23 07:22:45;;;;;;;32.28;14.20;;;;;;;;;;4994273;28;20129;-84
2022/03/23 07:25:12;;;;;;;35.75;14.48;;;6.60;99.90;;;;;;4983916;28;20034;-85
2022/03/23 07:27:38;;;;;;;30.70;14.77;;;;;;;;;;4971909;28;20542;-86
2022/03/23 07:30:05;;;;;;;26.17;13.88;;;5.50;99.90;;;;;;4973782;28;20044;-88
2022/03/23 07:32:31;;;;;;;29.42;14.27;;;;;;;;;;4972728;28;20053;-86
2022/03/23 07:34:57;;;;;;;25.02;14.13;;;;;;;;;;4984586;28;20041;-86
2022/03/23 07:37:23;;;;;;;26.02;14.50;;;;;;;;;;4970492;28;20518;-86
2022/03/23 07:39:49;;;;;;;24.77;14.32;;;;;;;;;;4990945;28;20038;-86
2022/03/23 07:42:15;;;;;;;36.10;14.63;;;;;;;;;;4979586;28;20535;-86
2022/03/23 07:44:44;;;;;;;28.92;15.38;;;;;;;;;;4988206;28;20039;-87
2022/03/23 07:47:15;;;;;;;31.67;14.63;;;;;;;;;;4970403;28;20102;-87
2022/03/23 07:49:41;;;;;;;27.58;14.55;;;;;;;;;;4968061;28;20101;-87
2022/03/23 07:52:08;;;;;;;34.55;15.07;;;;;;;;;;4991674;28;20565;-85
2022/03/23 07:54:34;;;;;;;30.42;15.02;;;;;;;;;;4976458;28;20045;-88
2022/03/23 07:57:00;;;;;;;43.20;17.23;;;8.00;99.90;;;;;;4975030;28;20038;-88
2022/03/23 07:59:26;;;;;;;29.30;14.25;;;8.00;99.90;;;;;;4971283;28;20029;-86
2022/03/23 08:01:52;;;;;;;27.85;14.55;;;;;;;;;;4994488;28;20034;-89
2022/03/23 08:04:18;;;;;;;26.15;15.18;;;;;;;;;;4974215;28;20072;-86
2022/03/23 08:06:44;;;;;;;35.67;15.18;;;;;;;;;;4972605;28;20026;-86
2022/03/23 08:09:10;;;;;;;29.55;15.70;;;;;;;;;;4972455;28;20025;-86
2022/03/23 08:11:36;;;;;;;27.45;14.98;;;;;;;;;;4986161;28;20045;-87
2022/03/23 08:14:03;;;;;;;31.95;15.57;;;9.10;97.30;;;;;;4988354;28;20221;-85
2022/03/23 08:16:29;;;;;;;30.95;14.23;;;11.30;97.70;;;;;;4989560;28;20034;-85
2022/03/23 08:18:55;;;;;;;32.42;15.15;;;;;;;;;;4987445;28;20041;-85
2022/03/23 08:21:23;;;;;;;26.90;15.80;;;9.40;95.60;;;;;;4971245;28;20032;-88
2022/03/23 08:23:49;;;;;;;28.42;15.07;;;10.50;95.40;;;;;;4990084;28;20507;-87
2022/03/23 08:26:16;;;;;;;27.55;15.00;;;9.60;93.70;;;;;;4976258;28;20406;-88
2022/03/23 08:28:43;;;;;;;32.33;15.88;;;11.40;94.20;;;;;;4985104;28;20038;-87
2022/03/23 08:31:10;;;;;;;38.17;15.98;;;;;;;;;;4980511;28;21171;-85
2022/03/23 08:33:36;;;;;;;36.47;16.27;;;9.80;92.10;;;;;;4990394;28;20065;-88
2022/03/23 08:36:06;;;;;;;29.55;15.48;;;8.80;92.90;;;;;;4971465;28;20030;-89
2022/03/23 08:38:32;;;;;;;;;;;9.30;92.00;;;;;;4978628;28;20321;-89
2022/03/23 08:40:59;;;;;;;27.73;14.50;;;;;;;;;;4986347;28;20066;-88
2022/03/23 08:43:25;;;;;;;26.35;15.20;;;;;;;;;;4983982;28;20026;-85
2022/03/23 08:45:51;;;;;;;31.70;15.90;;;10.40;91.00;;;;;;4974449;28;20645;-86
2022/03/23 08:48:20;;;;;;;29.17;14.98;;;;;;;;;;4975349;28;20030;-90
2022/03/23 08:50:48;;;;;;;28.13;15.18;;;10.80;87.20;;;;;;4970775;28;20623;-87
2022/03/23 08:53:14;;;;;;;29.80;15.77;;;11.00;86.20;;;;;;4978409;28;20046;-88
2022/03/23 08:55:43;;;;;;;30.90;15.85;;;11.50;82.10;;;;;;4988336;28;20030;-88
2022/03/23 08:58:09;;;;;;;22.33;15.52;;;12.60;84.80;;;;;;4980314;28;20038;-89
2022/03/23 09:00:35;;;;;;;29.63;16.73;;;12.90;82.30;;;;;;4974792;28;20034;-88
2022/03/23 09:03:02;;;;;;;23.80;14.48;;;13.10;81.20;;;;;;4994636;28;20423;-87
2022/03/23 09:05:31;;;;;;;34.45;15.73;;;12.20;81.00;;;;;;4978073;28;20150;-85
2022/03/23 09:07:56;;;;;;;34.20;16.42;;;12.50;75.60;;;;;;4976237;28;20032;-88
2022/03/23 09:10:23;;;;;;;29.80;16.13;;;;;;;;;;4974590;28;20022;-89
2022/03/23 09:12:49;;;;;;;30.45;15.80;;;12.60;74.90;;;;;;4974219;28;20022;-87
2022/03/23 09:15:16;;;;;;;24.83;15.68;;;12.80;72.70;;;;;;4980231;28;20030;-90
2022/03/23 09:17:42;;;;;;;27.67;16.13;;;13.50;74.10;;;;;;4991502;28;20025;-83
2022/03/23 09:20:10;;;;;;;25.17;15.32;;;13.00;73.40;;;;;;4979380;28;20026;-86
2022/03/23 09:22:36;;;;;;;28.85;16.27;;;13.00;73.50;;;;;;4975272;28;20026;-88
2022/03/23 09:25:06;;;;;;;26.00;15.65;;;13.40;71.10;;;;;;4983538;28;20033;-88
2022/03/23 09:27:38;;;;;;;29.08;15.52;;;13.60;70.60;;;;;;4990591;28;20026;-86
2022/03/23 09:30:05;;;;;;;29.17;16.25;;;13.60;71.50;;;;;;4989050;28;20435;-84
2022/03/23 09:32:31;;;;;;;29.60;16.00;;;13.90;72.50;;;;;;4975553;28;20026;-87
2022/03/23 09:34:57;;;;;;;28.77;15.48;;;14.80;70.50;;;;;;4999416;28;20048;-84
2022/03/23 09:40:09;;;;;;;27.73;16.02;;;14.30;67.10;;;;;;4993473;28;20081;-87
2022/03/23 09:42:39;;;;;;;28.98;15.98;;;14.60;66.70;;;;;;4974294;28;20093;-87
2022/03/23 09:45:06;;;;;;;26.35;16.75;;;;;;;;;;4990798;28;20030;-87
2022/03/23 09:47:31;;;;;;;30.70;16.67;;;14.70;65.90;;;;;;4994806;28;20117;-86
2022/03/23 09:49:58;;;;;;;29.55;16.35;;;;;;;;;;4976853;28;20791;-87
2022/03/23 09:52:24;;;;;;;28.33;16.17;;;;;;;;;;4977489;28;20049;-86
2022/03/23 09:54:49;;;;;;;26.88;16.48;;;15.10;66.00;;;;;;4978344;28;20538;-86
2022/03/23 09:57:15;;;;;;;27.55;16.50;;;;;;;;;;4975864;28;20362;-88
2022/03/23 09:59:42;;;;;;;30.00;15.55;;;;;;;;;;4995846;28;20034;-87
2022/03/23 10:02:33;;;;;;;23.95;14.45;;;15.40;63.30;;;;;;4983447;28;20039;-87
2022/03/23 10:05:22;;;;;;;28.20;14.77;;;15.40;62.40;;;;;;4988482;28;21245;-89
2022/03/23 10:08:25;;;;;;;26.33;14.98;;;15.60;60.60;;;;;;4993047;28;20345;-85
2022/03/23 10:11:16;;;;;;;25.45;12.98;;;15.60;61.10;;;;;;4978421;28;20029;-87
2022/03/23 10:14:19;;;;;;;25.85;12.85;;;15.80;62.90;;;;;;4991943;28;20034;-86
2022/03/23 10:17:29;;;;;;;23.30;13.68;;;16.00;60.90;;;;;;4979047;28;20064;-87
2022/03/23 10:19:55;;;;;;;24.27;13.45;;;16.20;61.80;;;;;;4974342;28;20507;-89
2022/03/23 10:22:26;;;;;;;21.70;12.43;;;16.20;62.50;;;;;;4975755;28;20471;-89
2022/03/23 10:24:52;;;;;;;22.77;12.13;;;16.30;61.70;;;;;;4974400;28;20034;-88
2022/03/23 10:27:20;;;;;;;23.77;12.88;;;16.40;59.00;;;;;;4972948;28;20030;-89
2022/03/23 10:29:54;;;;;;;23.48;12.88;;;16.60;56.40;;;;;;4989683;28;20050;-88
2022/03/23 10:32:21;;;;;;;19.27;12.00;;;16.80;57.60;;;;;;4976941;28;20034;-87
2022/03/23 10:34:54;;;;;;;26.27;12.82;;;16.90;56.50;;;;;;4994240;28;20384;-88
2022/03/23 10:37:33;;;;;;;26.33;13.15;;;15.00;58.60;;;;;;5004333;28;20030;-87
2022/03/23 10:40:04;;;;;;;23.20;12.60;;;18.50;58.70;;;;;;4979107;28;20052;-88
2022/03/23 10:42:44;;;;;;;22.52;12.57;;;16.90;56.40;;;;;;4983648;28;20034;-88
2022/03/23 10:45:16;;;;;;;20.98;12.35;;;16.90;55.70;;;;;;4976336;28;20133;-88
2022/03/23 10:47:46;;;;;;;22.27;12.55;;;16.80;54.30;;;;;;4998829;28;20153;-85
2022/03/23 10:50:42;;;;;;;22.10;12.00;;;17.10;55.60;;;;;;4987895;28;20089;-89
2022/03/23 10:53:08;;;;;;;24.02;12.55;;;;;;;;;;4980984;28;20041;-89
2022/03/23 10:55:46;;;;;;;21.00;13.15;;;16.90;54.20;;;;;;4976414;28;20116;-89
2022/03/23 10:58:39;;;;;;;22.48;12.55;;;17.00;55.40;;;;;;4981480;28;20037;-89
2022/03/23 11:01:09;;;;;;;22.35;11.77;;;17.20;52.20;;;;;;4993577;28;20058;-89
2022/03/23 11:03:42;;;;;;;20.37;12.77;;;17.40;53.60;;;;;;4980089;28;20030;-87
2022/03/23 11:06:29;;;;;;;22.88;13.15;;;18.40;54.60;;;;;;4975026;28;20038;-87
2022/03/23 11:18:22;;;;;;;22.83;13.82;;;18.00;52.80;;;;;;4989324;28;20411;-87
2022/03/23 11:21:05;;;;;;;20.65;12.02;;;18.10;52.30;;;;;;4975257;28;20037;-88
2022/03/23 11:23:40;;;;;;;22.20;12.85;;;18.20;50.70;;;;;;4972679;28;20559;-86
2022/03/23 11:26:24;;;;;;;22.13;13.15;;;18.30;51.50;;;;;;5008489;28;20026;-89
2022/03/23 11:29:14;;;;;;;21.33;12.38;;;18.20;50.10;;;;;;5007986;28;20034;-89
2022/03/23 11:31:40;;;;;;;20.42;12.10;;;18.10;50.00;;;;;;5003641;28;20041;-89
2022/03/23 11:34:41;;;;;;;21.67;12.25;;;18.20;50.70;;;;;;5014558;28;20034;-89
2022/03/23 11:37:19;;;;;;;;;;;;;;;;;;;;;
2022/03/23 11:40:12;;;;;;;28.23;14.05;;;18.40;49.60;;;;;;5021639;28;20057;-89
2022/03/23 11:42:41;;;;;;;24.90;13.35;;;18.40;49.30;;;;;;4991478;28;20053;-89
2022/03/23 11:45:07;;;;;;;21.40;13.37;;;;;;;;;;4980184;28;20029;-88
2022/03/23 11:48:04;;;;;;;24.25;13.85;;;18.40;48.60;;;;;;4974541;28;20361;-87
2022/03/23 11:50:58;;;;;;;21.80;12.68;;;18.40;48.40;;;;;;4986799;28;20104;-87
2022/03/23 11:53:52;;;;;;;21.23;13.57;;;18.40;48.80;;;;;;4976743;28;20120;-87
2022/03/23 11:56:45;;;;;;;20.95;12.77;;;18.50;48.40;;;;;;4979839;28;20030;-88
2022/03/23 11:59:24;;;;;;;22.08;12.70;;;18.60;49.70;;;;;;4974971;28;20037;-86
2022/03/23 12:02:33;;;;;;;24.50;13.60;;;18.60;47.50;;;;;;4996333;28;20014;-88
2022/03/23 12:05:48;;;;;;;22.60;13.35;;;19.00;49.10;;;;;;4958771;28;20227;-89
2022/03/23 12:08:58;;;;;;;22.33;13.23;;;18.70;49.30;;;;;;4941392;28;20031;-86
2022/03/23 12:11:49;;;;;;;23.90;13.85;;;18.80;47.00;;;;;;4946500;28;20043;-88
2022/03/23 12:14:29;;;;;;;22.45;12.80;;;18.90;46.70;;;;;;5003679;28;20035;-88
2022/03/23 12:16:57;;;;;;;21.92;13.25;;;;;;;;;;4984330;28;20029;-87
2022/03/23 12:19:33;;;;;;;20.38;12.32;;;19.10;46.60;;;;;;4993782;28;20053;-89
2022/03/23 12:22:14;;;;;;;23.92;13.25;;;19.20;46.50;;;;;;4982335;28;20547;-88
2022/03/23 12:25:36;;;;;;;24.17;13.15;;;19.20;47.80;;;;;;4987393;28;20050;-88
2022/03/23 12:28:14;;;;;;;23.85;13.30;;;;;;;;;;4934484;28;20661;-87
2022/03/23 12:30:55;;;;;;;27.88;13.98;;;19.20;45.40;;;;;;4950374;28;20070;-88
2022/03/23 12:33:26;;;;;;;24.55;13.23;;;19.20;45.30;;;;;;4952277;28;20187;-89
2022/03/23 12:36:02;;;;;;;26.55;14.15;;;19.30;47.60;;;;;;4971296;28;20756;-88
2022/03/23 12:38:34;;;;;;;24.75;13.13;;;19.20;45.70;;;;;;4975905;28;20042;-88
2022/03/23 12:41:11;;;;;;;22.77;13.02;;;18.70;47.00;;;;;;4974224;28;20036;-86
2022/03/23 12:43:51;;;;;;;20.25;12.45;;;19.20;46.60;;;;;;4971035;28;20037;-88
2022/03/23 12:46:29;;;;;;;23.77;13.70;;;19.40;46.00;;;;;;4974786;28;20366;-89
2022/03/23 12:58:16;;;;;;;23.83;13.93;;;19.50;45.00;;;;;;4988259;28;20107;-88
2022/03/23 13:00:54;;;;;;;22.73;13.63;;;19.60;44.50;;;;;;4974036;28;20037;-88
2022/03/23 13:03:49;;;;;;;24.42;13.88;;;19.60;44.60;;;;;;4975520;28;20025;-88
2022/03/23 13:06:19;;;;;;;25.52;13.25;;;19.60;44.10;;;;;;4970600;28;20026;-88
2022/03/23 13:08:50;;;;;;;22.45;13.07;;;19.60;44.80;;;;;;4988522;28;20026;-88
2022/03/23 13:11:23;;;;;;;;;;;19.50;44.70;;;;;;4975780;28;20034;-87
2022/03/23 13:13:52;;;;;;;22.15;12.63;;;17.70;44.30;;;;;;4979224;28;19940;-88
2022/03/23 13:16:35;;;;;;;25.25;13.45;;;17.80;45.10;;;;;;4981148;28;20045;-87
2022/03/23 13:19:09;;;;;;;20.67;12.95;;;19.30;45.90;;;;;;4976106;28;20041;-89
2022/03/23 13:21:35;;;;;;;24.40;13.45;;;;;;;;;;4991345;28;20022;-87
2022/03/23 13:24:03;;;;;;;23.27;13.90;;;19.40;44.70;;;;;;4973639;28;20034;-90
2022/03/23 13:26:45;;;;;;;19.48;13.25;;;19.20;45.40;;;;;;4979056;28;20038;-87
2022/03/23 13:29:13;;;;;;;29.58;14.27;;;19.50;43.60;;;;;;4980134;28;20045;-90
2022/03/23 13:31:42;;;;;;;21.48;13.45;;;19.60;46.20;;;;;;4979396;28;20045;-90
2022/03/23 13:34:13;;;;;;;26.17;13.05;;;19.50;44.80;;;;;;4996657;28;20041;-89
2022/03/23 13:36:41;;;;;;;21.90;12.45;;;19.70;44.60;;;;;;4975843;28;20041;-89
2022/03/23 13:39:12;;;;;;;18.38;11.90;;;19.90;42.00;;;;;;4965954;28;20205;-88
2022/03/23 13:47:38;;;;;;;20.92;12.20;;;19.80;41.40;;;;;;4962943;28;20571;-90
2022/03/23 13:52:52;;;;;;;19.73;12.40;;;20.00;41.20;;;;;;5070254;28;20060;-83
2022/03/23 13:55:18;;;;;;;20.80;11.93;;;;;;;;;;5055376;28;20037;-84
2022/03/23 13:57:48;;;;;;;22.35;12.90;;;20.20;41.10;;;;;;5066858;28;20066;-82
2022/03/23 14:00:26;;;;;;;21.23;12.27;;;20.20;40.50;;;;;;5061994;28;20036;-84
2022/03/23 14:02:55;;;;;;;26.27;14.50;;;20.20;41.80;;;;;;5045489;28;20089;-80
2022/03/23 14:05:25;;;;;;;19.05;12.50;;;20.30;41.10;;;;;;5042038;28;20028;-82
2022/03/23 14:07:51;;;;;;;22.35;11.80;;;;;;;;;;5056083;28;20436;-79